Sutton, ND (58484)

05:12 PM CDT die 28o July, anno 2016 (GMT -0500)
APRSWXNET | | Change Station

Elev 1519 ft 47.56 °N, 98.34 °W | Updated 45 minutes ago

Scattered Clouds
Nubes Dispersae
73 °F
Feels Like 77 °F
N
1
Ventus Variabilis Ventus from Magis Eurus quam Auster
Gusts 0.0 mph

Hodie
High -- | Low -- °F
--% Chance of Precip.
Yesterday
High -- | Low -- °F
Precip. -- in
Pressio 30.07 in
Visibilitas 10.0 milia passuum
Clouds Few 3600 ft
Nubes Dispersae 5000 ft
Nubes Dispersae 6000 ft
Index Caloris 77 °F
Frigus in quo Ros apparet 56 °F
Umor 55%
Rainfall in
Snow Depth Not available.
6:07 AM 9:11 PM
Waning Crescent, 28% visible
METAR KJMS 282156Z AUTO 07006KT 10SM FEW036 SCT050 SCT060 23/16 A3007 RMK AO2 SLP182 T02330161
Pressio 30.07 in
Visibilitas 10.0 milia passuum
Clouds Few 3600 ft
Nubes Dispersae 5000 ft
Nubes Dispersae 6000 ft
Index Caloris 77 °F
Frigus in quo Ros apparet 56 °F
Umor 55%
Rainfall in
Snow Depth Not available.
6:07 AM 9:11 PM
Waning Crescent, 28% visible
METAR KJMS 282156Z AUTO 07006KT 10SM FEW036 SCT050 SCT060 23/16 A3007 RMK AO2 SLP182 T02330161

10-Day Weather Forecast

Almanac

Astronomy

Jul. 28, 2016 Rise Set
Actual Time
Civil Twilight
Nautical Twilight
Astronomical Twilight
Moon
Length Of Visible Light
Length of Day
Tomorrow will be .
, % of the Moon is Illuminated

Today's Extremes

State Highs State Lows

Community

WunderPhotos

Upload Photos

1,928,219 photos uploaded!

WunderBlog® & News

Nearby

Air Quality

  Air Quality AQ Index Pollutant
Not available.

Snow Depth

Station Depth Elevation

Earthquake Activity

City Distance Mag. Time & Date
Minimum magnitude displayed is 2.5.

Coastal Water Temperatures

Locus Calor

Stations

Nearby Weather Stations

Station Location Temp Frigus Venti Frigus in quo Ros apparet Umor Ventus Precip. Elev Renovata Type
                   

Watches & Warnings

There are currently no watches in effect.